Time;durP1;ratioP1;P1;durP2;ratioP2;P2;SDS_P1;SDS_P2;PMS_P1;PMS_P2;Temp;Humidity;BMP_temperature;BMP_pressure;BME280_temperature;BME280_humidity;BME280_pressure;Samples;Min_cycle;Max_cycle;Signal;HPM_P1;HPM_P2
2023/05/16 00:00:09;;;;;;;6.45;1.83;;;11.00;99.90;;;;;;5086516;28;20476;-43
2023/05/16 00:02:38;;;;;;;4.63;1.30;;;11.00;99.90;;;;;;5085247;28;20035;-42
2023/05/16 00:05:06;;;;;;;10.45;1.67;;;11.00;99.90;;;;;;5085689;28;20039;-43
2023/05/16 00:07:32;;;;;;;8.52;1.80;;;11.00;99.90;;;;;;5085265;28;20471;-44
2023/05/16 00:09:58;;;;;;;10.98;2.42;;;11.00;99.90;;;;;;5086329;28;20036;-44
2023/05/16 00:12:24;;;;;;;5.70;2.22;;;11.00;99.90;;;;;;5084483;28;20072;-44
2023/05/16 00:14:51;;;;;;;5.72;1.90;;;10.90;99.90;;;;;;5086415;28;20387;-43
2023/05/16 00:17:18;;;;;;;11.63;1.98;;;10.90;99.90;;;;;;5086068;28;20032;-44
2023/05/16 00:19:47;;;;;;;9.40;2.22;;;10.80;99.90;;;;;;5081227;28;20087;-44
2023/05/16 00:22:14;;;;;;;9.50;2.30;;;10.80;99.90;;;;;;5085824;28;20024;-43
2023/05/16 00:24:43;;;;;;;9.65;1.83;;;10.80;99.90;;;;;;5085370;28;20020;-43
2023/05/16 00:27:08;;;;;;;9.35;2.08;;;10.80;99.90;;;;;;5084288;28;20017;-45
2023/05/16 00:29:34;;;;;;;4.35;1.50;;;10.80;99.90;;;;;;5083551;28;20558;-44
2023/05/16 00:32:00;;;;;;;7.82;1.90;;;10.70;99.90;;;;;;5085369;28;20024;-44
2023/05/16 00:34:25;;;;;;;9.32;1.70;;;10.70;99.90;;;;;;5083616;28;20361;-43
2023/05/16 00:36:52;;;;;;;5.63;2.00;;;10.70;99.90;;;;;;5084977;28;20890;-43
2023/05/16 00:39:18;;;;;;;11.10;1.92;;;10.60;99.90;;;;;;5085184;28;20020;-44
2023/05/16 00:41:44;;;;;;;4.95;1.40;;;10.60;99.90;;;;;;5084611;28;20043;-44
2023/05/16 00:44:10;;;;;;;5.18;1.83;;;10.50;99.90;;;;;;5085156;28;20016;-43
2023/05/16 00:46:36;;;;;;;9.63;1.60;;;10.50;99.90;;;;;;5084977;28;20563;-43
2023/05/16 00:49:02;;;;;;;9.20;1.90;;;10.50;99.90;;;;;;5084594;28;20024;-43
2023/05/16 00:51:28;;;;;;;6.88;1.48;;;10.50;99.90;;;;;;5084544;28;20036;-43
2023/05/16 00:53:55;;;;;;;9.23;2.13;;;10.40;99.90;;;;;;5084254;28;20051;-44
2023/05/16 00:56:21;;;;;;;8.40;1.85;;;10.40;99.90;;;;;;5084481;28;20482;-44
2023/05/16 00:58:47;;;;;;;7.80;1.77;;;10.40;99.90;;;;;;5084281;28;20028;-43
2023/05/16 01:01:13;;;;;;;7.20;1.77;;;10.40;99.90;;;;;;5084476;28;20696;-43
2023/05/16 01:03:38;;;;;;;12.35;1.90;;;10.30;99.90;;;;;;5084520;28;20024;-43
2023/05/16 01:06:05;;;;;;;8.43;1.75;;;10.30;99.90;;;;;;5085427;28;20026;-43
2023/05/16 01:08:31;;;;;;;8.30;1.65;;;10.30;99.90;;;;;;5083945;28;20032;-44
2023/05/16 01:11:02;;;;;;;6.80;1.30;;;10.30;99.90;;;;;;5084142;28;20032;-42
2023/05/16 01:13:45;;;;;;;7.55;1.77;;;10.20;99.90;;;;;;5085102;28;20207;-44
2023/05/16 01:16:10;;;;;;;;;;;10.20;99.90;;;;;;5085360;28;20131;-43
2023/05/16 01:18:44;;;;;;;7.90;1.80;;;10.10;99.90;;;;;;5084481;28;20014;-43
2023/05/16 01:21:34;;;;;;;5.80;1.00;;;10.10;99.90;;;;;;5084331;28;20430;-43
2023/05/16 01:24:12;;;;;;;7.20;1.48;;;10.10;99.90;;;;;;5063757;28;20397;-43
2023/05/16 01:26:38;;;;;;;6.75;1.50;;;10.00;99.90;;;;;;5083110;28;20024;-43
2023/05/16 01:29:05;;;;;;;4.63;1.02;;;10.00;99.90;;;;;;5084115;28;20036;-44
2023/05/16 01:31:30;;;;;;;7.78;1.77;;;10.00;99.90;;;;;;5083654;28;20027;-43
2023/05/16 01:33:56;;;;;;;6.05;1.30;;;9.90;99.90;;;;;;5085061;28;20372;-44
2023/05/16 01:36:45;;;;;;;6.38;1.42;;;9.90;99.90;;;;;;5083035;28;20471;-42
2023/05/16 01:39:14;;;;;;;8.10;1.50;;;9.80;99.90;;;;;;5063797;28;20066;-43
2023/05/16 01:42:09;;;;;;;8.13;1.75;;;9.80;99.90;;;;;;5078411;28;20040;-44
2023/05/16 01:44:58;;;;;;;5.15;1.40;;;9.70;99.90;;;;;;5062170;28;20021;-44
2023/05/16 01:47:26;;;;;;;6.07;1.40;;;9.60;99.90;;;;;;5082529;28;20028;-43
2023/05/16 01:50:19;;;;;;;5.80;1.23;;;9.60;99.90;;;;;;5082663;28;20478;-44
2023/05/16 01:52:55;;;;;;;6.43;1.60;;;9.50;99.90;;;;;;5079268;28;20028;-43
2023/05/16 01:55:30;;;;;;;7.43;1.10;;;9.50;99.90;;;;;;5083845;28;20574;-43
2023/05/16 01:57:58;;;;;;;7.65;1.40;;;9.40;99.90;;;;;;5081733;28;20422;-44
2023/05/16 02:00:24;;;;;;;6.45;1.73;;;9.40;99.90;;;;;;5083497;28;20093;-44
2023/05/16 02:02:49;;;;;;;4.60;1.30;;;9.40;99.90;;;;;;5082693;28;20020;-43
2023/05/16 02:05:15;;;;;;;5.63;1.23;;;9.40;99.90;;;;;;5083330;28;20040;-43
2023/05/16 02:07:41;;;;;;;4.00;1.08;;;9.30;99.90;;;;;;5082909;28;20027;-43
2023/05/16 02:10:07;;;;;;;7.20;1.73;;;9.30;99.90;;;;;;5084084;28;20638;-44
2023/05/16 02:12:33;;;;;;;5.50;1.33;;;9.30;99.90;;;;;;5082168;28;20475;-44
2023/05/16 02:14:58;;;;;;;6.30;1.50;;;9.20;99.90;;;;;;5084139;28;20032;-43
2023/05/16 02:17:24;;;;;;;9.32;1.67;;;9.20;99.90;;;;;;5082789;28;20063;-44
2023/05/16 02:19:49;;;;;;;4.25;1.40;;;9.10;99.90;;;;;;5082730;28;20044;-43
2023/05/16 02:22:15;;;;;;;6.75;1.10;;;9.10;99.90;;;;;;5083077;28;20115;-43
2023/05/16 02:24:40;;;;;;;6.57;1.38;;;9.00;99.90;;;;;;5083293;28;20028;-43
2023/05/16 02:27:06;;;;;;;5.97;1.63;;;9.00;99.90;;;;;;5082716;28;20032;-44
2023/05/16 02:29:31;;;;;;;7.30;1.58;;;9.10;99.90;;;;;;5082558;28;20024;-44
2023/05/16 02:31:57;;;;;;;5.68;1.30;;;9.10;99.90;;;;;;5083585;28;20024;-43
2023/05/16 02:34:23;;;;;;;5.80;1.23;;;9.10;99.90;;;;;;5082180;28;20048;-41
2023/05/16 02:36:51;;;;;;;5.57;1.27;;;9.10;99.90;;;;;;5083918;28;20127;-43
2023/05/16 02:39:16;;;;;;;8.63;1.67;;;9.20;99.90;;;;;;5081697;28;20115;-43
2023/05/16 02:41:42;;;;;;;8.43;1.65;;;9.20;99.90;;;;;;5082948;28;20039;-45
2023/05/16 02:44:07;;;;;;;9.80;1.60;;;9.20;99.90;;;;;;5082718;28;20027;-44
2023/05/16 02:46:40;;;;;;;8.43;1.40;;;9.20;99.90;;;;;;5081088;28;20054;-43
2023/05/16 02:49:05;;;;;;;5.03;1.20;;;9.10;99.90;;;;;;5082100;28;20484;-43
2023/05/16 02:51:37;;;;;;;4.60;1.25;;;9.10;99.90;;;;;;5082042;28;20586;-43
2023/05/16 02:54:02;;;;;;;5.82;1.30;;;9.10;99.90;;;;;;5082186;28;20096;-43
2023/05/16 02:56:28;;;;;;;5.35;1.10;;;9.00;99.90;;;;;;5082455;28;20499;-43
2023/05/16 02:58:54;;;;;;;5.35;1.13;;;9.00;99.90;;;;;;5082297;28;20027;-43
2023/05/16 03:01:20;;;;;;;5.70;1.15;;;9.00;99.90;;;;;;5082659;28;20043;-44
2023/05/16 03:03:46;;;;;;;4.82;1.30;;;9.00;99.90;;;;;;5082381;28;20024;-44
2023/05/16 03:06:12;;;;;;;5.03;1.35;;;9.00;99.90;;;;;;5082436;28;20546;-44
2023/05/16 03:08:40;;;;;;;5.32;1.00;;;9.00;99.90;;;;;;5081163;28;20618;-43
2023/05/16 03:11:06;;;;;;;6.28;1.20;;;9.00;99.90;;;;;;5082404;28;20028;-43
2023/05/16 03:13:31;;;;;;;5.18;1.20;;;9.00;99.90;;;;;;5082129;28;20031;-43
2023/05/16 03:15:57;;;;;;;6.63;1.42;;;9.00;99.90;;;;;;5082589;28;20781;-43
2023/05/16 03:18:23;;;;;;;3.63;1.30;;;9.10;99.90;;;;;;5082272;28;20078;-44
2023/05/16 03:20:48;;;;;;;6.50;1.35;;;9.10;99.90;;;;;;5082295;28;20058;-44
2023/05/16 03:23:14;;;;;;;4.55;1.30;;;9.10;99.90;;;;;;5081782;28;20017;-44
2023/05/16 03:25:41;;;;;;;6.05;1.17;;;9.00;99.90;;;;;;5081546;28;20024;-44
2023/05/16 03:28:07;;;;;;;4.50;1.15;;;9.00;99.90;;;;;;5081539;28;20069;-44
2023/05/16 03:30:33;;;;;;;7.60;1.48;;;9.00;99.90;;;;;;5080461;28;20032;-44
2023/05/16 03:32:59;;;;;;;6.55;1.52;;;9.00;99.90;;;;;;5082289;28;20024;-43
2023/05/16 03:35:25;;;;;;;4.90;1.70;;;9.00;99.90;;;;;;5081528;28;20024;-45
2023/05/16 03:37:51;;;;;;;5.18;1.00;;;9.00;99.90;;;;;;5081439;28;20403;-43
2023/05/16 03:40:17;;;;;;;6.40;1.58;;;9.00;99.90;;;;;;5081595;28;20039;-44
2023/05/16 03:42:42;;;;;;;8.60;1.50;;;9.00;99.90;;;;;;5081445;28;20028;-43
2023/05/16 03:45:08;;;;;;;8.52;1.88;;;9.00;99.90;;;;;;5081882;28;20121;-43
2023/05/16 03:47:34;;;;;;;4.68;1.70;;;9.00;99.90;;;;;;5081769;28;20099;-43
2023/05/16 03:49:59;;;;;;;3.95;1.05;;;9.00;99.90;;;;;;5081158;28;20631;-43
2023/05/16 03:52:25;;;;;;;5.57;1.67;;;9.00;99.90;;;;;;5081908;28;20067;-43
2023/05/16 03:54:50;;;;;;;7.45;1.30;;;9.00;99.90;;;;;;5080743;28;20047;-43
2023/05/16 03:57:16;;;;;;;4.97;1.38;;;9.00;99.90;;;;;;5080733;28;20024;-42
2023/05/16 03:59:42;;;;;;;7.60;1.33;;;9.00;99.90;;;;;;5081095;28;20032;-44
2023/05/16 04:02:07;;;;;;;7.70;1.60;;;9.00;99.90;;;;;;5082563;28;20024;-44
2023/05/16 04:04:33;;;;;;;4.55;1.38;;;9.10;99.90;;;;;;5081299;28;20403;-43
2023/05/16 04:06:59;;;;;;;7.43;1.60;;;9.20;99.90;;;;;;5081952;28;20024;-43
2023/05/16 04:09:25;;;;;;;4.85;1.70;;;9.20;99.90;;;;;;5081506;28;20049;-43
2023/05/16 04:11:50;;;;;;;6.63;1.30;;;9.30;99.90;;;;;;5081233;28;20485;-43
2023/05/16 04:14:16;;;;;;;4.53;1.23;;;9.30;99.90;;;;;;5081759;28;20036;-43
2023/05/16 04:16:41;;;;;;;5.15;1.35;;;9.40;99.90;;;;;;5081229;28;20021;-43
2023/05/16 04:19:07;;;;;;;5.35;1.30;;;9.40;99.90;;;;;;5081884;28;20028;-43
2023/05/16 04:21:34;;;;;;;7.40;1.55;;;9.50;99.90;;;;;;5081249;28;20086;-43
2023/05/16 04:24:00;;;;;;;3.30;1.10;;;9.50;99.90;;;;;;5081447;28;20035;-43
2023/05/16 04:26:26;;;;;;;6.13;1.40;;;9.50;99.90;;;;;;5082236;28;20016;-43
2023/05/16 04:28:52;;;;;;;7.78;1.40;;;9.50;99.90;;;;;;5085915;28;20077;-43
2023/05/16 04:31:20;;;;;;;8.75;1.30;;;9.50;99.90;;;;;;5084707;28;20107;-43
2023/05/16 04:33:46;;;;;;;5.35;1.17;;;9.50;99.90;;;;;;5084003;28;20036;-43
2023/05/16 04:36:12;;;;;;;5.60;1.20;;;9.50;99.90;;;;;;5084965;28;20481;-44
2023/05/16 04:38:37;;;;;;;5.55;1.35;;;9.40;99.90;;;;;;5084865;28;20035;-44
2023/05/16 04:41:03;;;;;;;6.03;1.40;;;9.40;99.90;;;;;;5084616;28;20118;-43
2023/05/16 04:43:29;;;;;;;4.65;1.25;;;9.40;99.90;;;;;;5084965;28;20024;-43
2023/05/16 04:45:54;;;;;;;4.68;1.10;;;9.50;99.90;;;;;;5085236;28;20024;-42
2023/05/16 04:48:20;;;;;;;9.98;1.27;;;9.50;99.90;;;;;;5085498;28;20032;-43
2023/05/16 04:50:45;;;;;;;3.22;1.15;;;9.50;99.90;;;;;;5085252;28;20529;-43
2023/05/16 04:53:11;;;;;;;6.45;1.13;;;9.50;99.90;;;;;;5083701;28;20487;-43
2023/05/16 04:55:37;;;;;;;6.10;1.20;;;9.40;99.90;;;;;;5084312;28;20831;-43
2023/05/16 04:58:02;;;;;;;4.15;1.15;;;9.40;99.90;;;;;;5085444;28;20016;-43
2023/05/16 05:00:28;;;;;;;3.67;1.23;;;9.40;99.90;;;;;;5083443;28;20040;-43
2023/05/16 05:02:53;;;;;;;6.55;1.35;;;9.40;99.90;;;;;;5083904;28;20024;-43
2023/05/16 05:05:19;;;;;;;6.18;1.30;;;9.30;99.90;;;;;;5083879;28;20032;-43
2023/05/16 05:07:45;;;;;;;9.27;1.70;;;9.40;99.90;;;;;;5083519;28;20026;-44
2023/05/16 05:10:11;;;;;;;5.50;1.33;;;9.40;99.90;;;;;;5084243;28;20032;-43
2023/05/16 05:12:36;;;;;;;5.38;1.48;;;9.40;99.90;;;;;;5083617;28;20026;-43
2023/05/16 05:15:03;;;;;;;6.45;1.25;;;9.30;99.90;;;;;;5084480;28;20711;-43
2023/05/16 05:17:28;;;;;;;4.88;1.40;;;9.40;99.90;;;;;;5083535;28;20116;-43
2023/05/16 05:19:54;;;;;;;4.95;1.27;;;9.40;99.90;;;;;;5084558;28;20028;-43
2023/05/16 05:22:20;;;;;;;4.70;1.33;;;9.40;99.90;;;;;;5083962;28;20016;-43
2023/05/16 05:24:45;;;;;;;5.07;1.23;;;9.50;99.90;;;;;;5084181;28;20016;-43
2023/05/16 05:27:11;;;;;;;5.68;1.38;;;9.60;99.90;;;;;;5084741;28;20016;-43
2023/05/16 05:29:37;;;;;;;5.53;1.20;;;9.70;99.90;;;;;;5082836;28;20035;-44
2023/05/16 05:32:02;;;;;;;5.75;1.23;;;9.80;99.90;;;;;;5084415;28;20024;-43
2023/05/16 05:34:28;;;;;;;5.28;1.63;;;9.90;99.90;;;;;;5083622;28;20038;-43
2023/05/16 05:36:55;;;;;;;4.35;1.25;;;9.90;99.90;;;;;;5083519;28;20734;-44
2023/05/16 05:39:21;;;;;;;5.28;1.38;;;9.90;99.90;;;;;;5084223;28;20563;-43
2023/05/16 05:41:47;;;;;;;4.10;1.13;;;10.00;99.90;;;;;;5090340;28;20508;-43
2023/05/16 05:44:13;;;;;;;5.03;1.00;;;10.00;99.90;;;;;;5081905;28;20028;-43
2023/05/16 05:46:39;;;;;;;4.35;1.20;;;10.00;99.90;;;;;;5082271;28;20024;-42
2023/05/16 05:49:05;;;;;;;4.70;1.40;;;10.00;99.90;;;;;;5083226;28;20131;-43
2023/05/16 05:51:31;;;;;;;4.00;1.30;;;10.00;99.90;;;;;;5082468;28;20031;-43
2023/05/16 05:53:59;;;;;;;3.38;1.10;;;10.10;99.90;;;;;;5083418;28;20115;-43
2023/05/16 05:56:25;;;;;;;4.22;1.23;;;10.10;99.90;;;;;;5070305;28;20066;-43
2023/05/16 05:58:50;;;;;;;3.45;1.17;;;10.10;99.90;;;;;;5082974;28;20024;-43
2023/05/16 06:01:16;;;;;;;6.00;1.15;;;10.10;99.90;;;;;;5082701;28;20051;-44
2023/05/16 06:03:43;;;;;;;5.93;1.23;;;10.10;99.90;;;;;;5081772;28;20562;-43
2023/05/16 06:06:08;;;;;;;5.85;1.52;;;10.10;99.90;;;;;;5082266;28;20036;-44
2023/05/16 06:08:34;;;;;;;2.10;0.93;;;10.10;99.90;;;;;;5083370;28;20063;-43
2023/05/16 06:11:00;;;;;;;4.10;1.30;;;10.10;99.90;;;;;;5082061;28;20035;-44
2023/05/16 06:13:26;;;;;;;7.25;1.35;;;10.10;99.90;;;;;;5081918;28;20024;-44
2023/05/16 06:15:53;;;;;;;2.70;1.10;;;10.10;99.90;;;;;;5081933;28;20040;-45
2023/05/16 06:18:19;;;;;;;4.38;1.40;;;10.00;99.90;;;;;;5081004;28;20023;-43
2023/05/16 06:20:45;;;;;;;3.92;1.40;;;9.90;99.90;;;;;;5081371;28;20058;-44
2023/05/16 06:23:10;;;;;;;6.43;1.42;;;10.00;99.90;;;;;;5082515;28;20543;-44
2023/05/16 06:25:36;;;;;;;6.05;1.20;;;9.90;99.90;;;;;;5080747;28;20407;-43
2023/05/16 06:28:01;;;;;;;4.90;1.00;;;10.00;99.90;;;;;;5083162;28;20448;-44
2023/05/16 06:30:27;;;;;;;5.20;1.33;;;10.00;99.90;;;;;;5081244;28;20805;-44
2023/05/16 06:32:53;;;;;;;3.42;1.23;;;10.10;99.90;;;;;;5081933;28;20135;-45
2023/05/16 06:35:18;;;;;;;8.60;1.60;;;10.10;99.90;;;;;;5082417;28;20016;-43
2023/05/16 06:37:44;;;;;;;3.97;1.30;;;10.20;99.90;;;;;;5082508;28;20779;-43
2023/05/16 06:40:10;;;;;;;3.88;1.10;;;10.30;99.90;;;;;;5081565;28;20127;-43
2023/05/16 06:42:36;;;;;;;4.55;1.50;;;10.40;99.90;;;;;;5081873;28;20042;-44
2023/05/16 06:45:01;;;;;;;4.03;1.23;;;10.40;99.90;;;;;;5083493;28;20513;-43
2023/05/16 06:47:27;;;;;;;4.72;1.45;;;10.50;99.90;;;;;;5080938;28;20894;-44
2023/05/16 06:49:52;;;;;;;9.45;1.33;;;10.60;99.90;;;;;;5082428;28;20099;-44
2023/05/16 06:52:18;;;;;;;5.13;1.52;;;10.60;99.90;;;;;;5082115;28;20394;-43
2023/05/16 06:54:46;;;;;;;4.70;1.23;;;10.70;99.90;;;;;;5081178;28;20530;-44
2023/05/16 06:57:12;;;;;;;4.60;1.33;;;10.80;99.90;;;;;;5082306;28;20116;-44
2023/05/16 06:59:38;;;;;;;3.80;1.10;;;11.00;99.90;;;;;;5081798;28;20107;-44
2023/05/16 07:02:04;;;;;;;8.23;1.40;;;11.10;99.90;;;;;;5081914;28;20031;-43
2023/05/16 07:04:30;;;;;;;7.32;1.77;;;11.30;99.90;;;;;;5081854;28;20505;-42
2023/05/16 07:06:56;;;;;;;3.42;1.00;;;11.50;99.90;;;;;;5081471;28;20023;-44
2023/05/16 07:09:21;;;;;;;5.10;1.42;;;11.60;99.90;;;;;;5082071;28;20036;-43
2023/05/16 07:11:47;;;;;;;4.10;1.10;;;11.60;99.90;;;;;;5081928;28;20011;-44
2023/05/16 07:14:12;;;;;;;5.03;1.00;;;11.70;99.90;;;;;;5081361;28;20371;-43
2023/05/16 07:16:38;;;;;;;3.58;1.00;;;11.70;99.90;;;;;;5081786;28;20653;-43
2023/05/16 07:19:04;;;;;;;4.05;1.33;;;11.70;99.90;;;;;;5082154;28;20467;-44
2023/05/16 07:21:29;;;;;;;5.03;0.90;;;11.70;99.90;;;;;;5079465;28;20047;-43
2023/05/16 07:23:56;;;;;;;5.28;1.00;;;11.70;99.90;;;;;;5080969;28;20031;-45
2023/05/16 07:26:22;;;;;;;4.65;0.80;;;11.80;99.90;;;;;;5081301;28;20107;-43
2023/05/16 07:28:51;;;;;;;3.33;0.75;;;11.80;99.90;;;;;;5080798;28;20024;-43
2023/05/16 07:31:17;;;;;;;2.80;0.80;;;11.90;99.90;;;;;;5079917;28;20523;-44
2023/05/16 07:33:45;;;;;;;2.78;1.05;;;12.00;99.90;;;;;;5080864;28;20032;-44
2023/05/16 07:36:11;;;;;;;4.03;0.80;;;12.00;99.90;;;;;;5080075;28;20784;-44
2023/05/16 07:38:37;;;;;;;6.22;1.10;;;12.00;99.90;;;;;;5081031;28;20042;-43
2023/05/16 07:41:03;;;;;;;4.38;0.85;;;12.10;99.90;;;;;;5082858;28;20036;-43
2023/05/16 07:43:28;;;;;;;2.38;0.75;;;12.20;99.90;;;;;;5080061;28;20489;-44
2023/05/16 07:45:54;;;;;;;2.15;0.60;;;12.20;99.90;;;;;;5081684;28;20035;-44
2023/05/16 07:48:19;;;;;;;5.18;1.10;;;12.30;99.90;;;;;;5081657;28;20020;-43
2023/05/16 07:50:45;;;;;;;4.68;0.77;;;12.30;99.90;;;;;;5081126;28;20534;-44
2023/05/16 07:53:10;;;;;;;5.13;1.23;;;12.40;99.90;;;;;;5081704;28;20044;-43
2023/05/16 07:55:36;;;;;;;3.10;0.90;;;12.40;99.90;;;;;;5081163;28;20100;-44
2023/05/16 07:58:02;;;;;;;3.58;0.85;;;12.40;99.90;;;;;;5081068;28;20057;-43
2023/05/16 08:00:28;;;;;;;3.30;0.75;;;12.40;99.90;;;;;;5081810;28;20035;-42
2023/05/16 08:02:54;;;;;;;4.68;0.90;;;12.40;99.90;;;;;;5085455;28;20432;-44
2023/05/16 08:05:26;;;;;;;3.47;0.90;;;12.40;99.90;;;;;;5085537;28;20479;-43
2023/05/16 08:07:51;;;;;;;3.28;0.70;;;12.30;99.90;;;;;;5099367;28;20039;-43
2023/05/16 08:10:17;;;;;;;2.90;0.80;;;12.40;99.90;;;;;;5085213;28;20031;-43
2023/05/16 08:12:42;;;;;;;2.42;0.80;;;12.40;99.90;;;;;;5085678;28;20034;-43
2023/05/16 08:15:11;;;;;;;2.20;0.60;;;12.50;99.90;;;;;;5086091;28;20035;-43
2023/05/16 08:17:37;;;;;;;4.13;0.90;;;12.60;99.90;;;;;;5084988;28;20808;-42
2023/05/16 08:20:03;;;;;;;3.85;0.80;;;12.70;99.90;;;;;;5085737;28;20046;-44
2023/05/16 08:22:28;;;;;;;5.80;1.45;;;12.90;99.90;;;;;;5085521;28;20549;-43
2023/05/16 08:24:56;;;;;;;3.30;0.80;;;12.90;99.90;;;;;;5085265;28;20069;-43
2023/05/16 08:27:23;;;;;;;4.43;0.88;;;13.00;99.90;;;;;;5084905;28;20112;-43
2023/05/16 08:29:48;;;;;;;5.70;1.20;;;12.90;99.90;;;;;;5084678;28;20024;-44
2023/05/16 08:32:17;;;;;;;4.22;1.17;;;12.80;99.90;;;;;;5082345;28;20024;-43
2023/05/16 08:34:42;;;;;;;3.00;0.90;;;12.70;99.90;;;;;;5084137;28;20024;-44
2023/05/16 08:37:09;;;;;;;3.10;0.65;;;12.50;99.90;;;;;;5085048;28;20375;-44
2023/05/16 08:39:34;;;;;;;2.13;0.50;;;12.30;99.90;;;;;;5083428;28;20023;-44
2023/05/16 08:42:00;;;;;;;0.90;0.47;;;12.20;99.90;;;;;;5085184;28;20012;-45
2023/05/16 08:44:27;;;;;;;3.28;0.63;;;12.10;99.90;;;;;;5084670;28;20175;-44
2023/05/16 08:46:53;;;;;;;2.05;0.60;;;12.00;99.90;;;;;;5085208;28;20016;-44
2023/05/16 08:49:20;;;;;;;2.05;0.50;;;12.00;99.90;;;;;;5084954;28;20036;-43
2023/05/16 08:51:46;;;;;;;1.23;0.50;;;12.10;99.90;;;;;;5084273;28;20475;-42
2023/05/16 08:54:13;;;;;;;1.77;0.55;;;12.10;99.90;;;;;;5083643;28;20649;-43
2023/05/16 08:56:41;;;;;;;1.92;0.63;;;12.10;99.90;;;;;;5083438;28;20024;-43
2023/05/16 08:59:08;;;;;;;2.60;0.45;;;12.10;99.90;;;;;;5083347;28;20134;-43
2023/05/16 09:01:33;;;;;;;1.63;0.50;;;12.10;99.90;;;;;;5085099;28;20109;-43
2023/05/16 09:04:00;;;;;;;3.33;0.90;;;12.10;99.90;;;;;;5084409;28;20099;-43
2023/05/16 09:06:26;;;;;;;2.35;0.50;;;12.20;99.90;;;;;;5082860;28;20059;-43
2023/05/16 09:08:55;;;;;;;1.67;0.60;;;12.20;99.90;;;;;;5084964;28;20056;-43
2023/05/16 09:11:20;;;;;;;1.13;0.52;;;12.30;99.90;;;;;;5083610;28;20480;-42
2023/05/16 09:13:47;;;;;;;4.47;0.75;;;12.40;99.90;;;;;;5083018;28;20031;-43
2023/05/16 09:16:18;;;;;;;3.80;0.73;;;12.50;99.90;;;;;;5083976;28;20028;-43
2023/05/16 09:18:51;;;;;;;3.25;1.10;;;12.70;99.90;;;;;;5083741;28;20024;-43
2023/05/16 09:21:18;;;;;;;1.05;0.70;;;12.70;99.90;;;;;;5083180;28;20040;-44
2023/05/16 09:23:43;;;;;;;3.22;0.90;;;12.90;99.90;;;;;;5083947;28;20035;-43
2023/05/16 09:26:09;;;;;;;3.70;1.15;;;13.00;99.90;;;;;;5084631;28;20818;-43
2023/05/16 09:28:38;;;;;;;4.95;1.00;;;13.20;99.90;;;;;;5083317;28;20380;-42
2023/05/16 09:31:03;;;;;;;2.03;0.80;;;13.40;99.90;;;;;;5084013;28;20413;-43
2023/05/16 09:33:29;;;;;;;2.50;0.80;;;13.50;99.90;;;;;;5082944;28;20520;-43
2023/05/16 09:36:00;;;;;;;3.75;0.80;;;13.60;99.90;;;;;;5083302;28;20057;-43
2023/05/16 09:38:27;;;;;;;1.58;0.68;;;13.50;99.90;;;;;;5079203;28;20051;-44
2023/05/16 09:40:56;;;;;;;2.90;0.90;;;13.50;99.90;;;;;;5083709;28;20040;-44
2023/05/16 09:43:25;;;;;;;2.63;0.95;;;13.50;99.90;;;;;;5081905;28;20024;-45
2023/05/16 09:45:51;;;;;;;3.10;0.82;;;13.50;99.90;;;;;;5083679;28;20042;-42
2023/05/16 09:48:17;;;;;;;4.78;0.52;;;13.60;99.90;;;;;;5082857;28;20048;-44
2023/05/16 09:50:53;;;;;;;2.30;0.90;;;13.70;99.90;;;;;;5084452;28;20874;-43
2023/05/16 09:53:29;;;;;;;2.92;0.90;;;13.80;99.80;;;;;;5083191;28;20024;-43
2023/05/16 09:56:11;;;;;;;2.78;0.80;;;13.80;99.90;;;;;;5063101;28;20094;-43
2023/05/16 09:58:39;;;;;;;3.53;0.75;;;13.70;99.70;;;;;;5081439;28;20107;-43
2023/05/16 10:01:06;;;;;;;2.90;0.95;;;13.60;99.60;;;;;;5083904;28;20032;-44
2023/05/16 10:03:34;;;;;;;2.17;0.65;;;13.60;99.40;;;;;;5082385;28;20592;-43
2023/05/16 10:06:00;;;;;;;4.32;0.90;;;13.70;98.70;;;;;;5083743;28;20055;-42
2023/05/16 10:08:26;;;;;;;4.40;0.80;;;13.80;97.80;;;;;;5082726;28;20032;-42
2023/05/16 10:10:55;;;;;;;1.30;0.60;;;14.00;96.20;;;;;;5083600;28;20077;-43
2023/05/16 10:13:23;;;;;;;3.15;0.63;;;14.10;96.60;;;;;;5083121;28;20110;-43
2023/05/16 10:15:50;;;;;;;3.53;1.33;;;14.20;96.50;;;;;;5083464;28;20068;-43
2023/05/16 10:18:20;;;;;;;2.78;0.90;;;14.30;96.30;;;;;;5082991;28;20646;-44
2023/05/16 10:20:51;;;;;;;3.03;1.08;;;14.40;95.50;;;;;;5082689;28;20055;-42
2023/05/16 10:23:18;;;;;;;3.45;1.02;;;14.20;95.00;;;;;;5081719;28;20109;-44
2023/05/16 10:25:46;;;;;;;2.42;0.80;;;14.10;94.80;;;;;;5080638;28;20656;-43
2023/05/16 10:28:12;;;;;;;2.40;0.70;;;14.00;95.40;;;;;;5081820;28;20139;-42
2023/05/16 10:30:42;;;;;;;3.13;0.70;;;14.00;95.40;;;;;;5080286;28;20531;-42
2023/05/16 10:33:13;;;;;;;2.10;0.90;;;14.00;95.40;;;;;;5081847;28;20024;-43
2023/05/16 10:35:39;;;;;;;2.92;0.90;;;14.10;95.50;;;;;;5081148;28;20107;-42
2023/05/16 10:38:08;;;;;;;2.25;0.80;;;14.20;95.40;;;;;;5081565;28;20020;-42
2023/05/16 10:40:35;;;;;;;1.75;0.50;;;14.30;95.20;;;;;;5082858;28;20149;-43
2023/05/16 10:43:02;;;;;;;2.63;0.70;;;14.50;95.20;;;;;;5081784;28;20457;-42
2023/05/16 10:45:29;;;;;;;1.70;0.73;;;14.60;94.80;;;;;;5080471;28;20028;-42
2023/05/16 10:47:57;;;;;;;1.90;0.80;;;14.70;94.60;;;;;;5081653;28;20031;-43
2023/05/16 10:50:40;;;;;;;3.50;0.77;;;14.70;94.40;;;;;;5081144;28;20039;-43
2023/05/16 10:53:20;;;;;;;4.65;0.82;;;14.70;93.90;;;;;;5081857;28;20111;-43
2023/05/16 10:55:58;;;;;;;4.53;1.10;;;14.60;94.30;;;;;;5081701;28;20510;-43
2023/05/16 10:58:45;;;;;;;2.88;0.82;;;14.60;93.80;;;;;;5082615;28;20032;-42
2023/05/16 11:01:39;;;;;;;3.97;0.75;;;14.60;94.10;;;;;;5082558;28;20048;-44
2023/05/16 11:04:07;;;;;;;2.47;0.80;;;14.60;93.50;;;;;;5078876;28;20036;-43
2023/05/16 11:06:34;;;;;;;3.03;0.77;;;14.80;94.00;;;;;;5081103;28;20429;-44
2023/05/16 11:09:05;;;;;;;3.58;1.00;;;14.90;92.90;;;;;;5082337;28;20101;-44
2023/05/16 11:12:05;;;;;;;2.63;0.88;;;14.90;92.90;;;;;;5081849;28;20470;-43
2023/05/16 11:14:34;;;;;;;2.15;0.63;;;15.00;92.10;;;;;;5080574;28;20056;-44
2023/05/16 11:17:07;;;;;;;2.67;0.73;;;14.90;92.70;;;;;;5082094;28;20093;-42
2023/05/16 11:19:53;;;;;;;3.67;0.98;;;14.90;93.00;;;;;;5081303;28;20024;-42
2023/05/16 11:22:19;;;;;;;1.95;0.80;;;14.90;92.70;;;;;;5081438;28;20051;-42
2023/05/16 11:24:55;;;;;;;4.32;0.88;;;15.00;92.80;;;;;;5081687;28;20027;-43
2023/05/16 11:27:22;;;;;;;2.05;0.80;;;15.10;92.70;;;;;;5081820;28;20024;-43
2023/05/16 11:29:52;;;;;;;2.35;0.77;;;15.20;92.80;;;;;;5082039;28;20052;-43
2023/05/16 11:32:21;;;;;;;2.65;0.98;;;15.40;92.60;;;;;;5082322;28;20131;-43
2023/05/16 11:34:48;;;;;;;3.13;1.02;;;15.50;92.70;;;;;;5081362;28;20054;-43
2023/05/16 11:37:15;;;;;;;2.60;0.70;;;15.60;92.50;;;;;;5081504;28;20020;-43
2023/05/16 11:39:41;;;;;;;4.63;0.90;;;15.60;92.20;;;;;;5081959;28;20020;-44
2023/05/16 11:42:08;;;;;;;3.40;0.82;;;15.60;91.80;;;;;;5081058;28;20032;-42
2023/05/16 11:44:34;;;;;;;3.78;0.90;;;15.50;91.10;;;;;;5081441;28;20024;-42
2023/05/16 11:47:01;;;;;;;2.90;1.05;;;15.40;91.30;;;;;;5082347;28;20070;-43
2023/05/16 11:49:27;;;;;;;3.00;1.00;;;15.30;90.80;;;;;;5080605;28;20035;-42
2023/05/16 11:51:56;;;;;;;2.30;0.75;;;15.20;91.00;;;;;;5082153;28;20020;-40
2023/05/16 11:54:23;;;;;;;3.03;0.80;;;15.20;91.40;;;;;;5081026;28;20051;-43
2023/05/16 11:56:52;;;;;;;2.30;0.85;;;15.20;91.70;;;;;;5079956;28;20094;-43
2023/05/16 11:59:18;;;;;;;1.67;0.80;;;15.20;91.50;;;;;;5080692;28;20085;-42
2023/05/16 12:01:44;;;;;;;2.72;0.80;;;15.30;91.10;;;;;;5080063;28;20092;-42
2023/05/16 12:04:12;;;;;;;3.72;0.82;;;15.40;90.20;;;;;;5080354;28;20836;-44
2023/05/16 12:06:38;;;;;;;2.83;0.93;;;15.50;90.10;;;;;;5080518;28;20024;-44
2023/05/16 12:09:11;;;;;;;5.15;1.00;;;15.50;90.00;;;;;;5080923;28;20494;-43
2023/05/16 12:11:43;;;;;;;3.17;1.08;;;15.50;88.80;;;;;;5080953;28;20209;-43
2023/05/16 12:14:13;;;;;;;2.97;0.80;;;15.40;88.50;;;;;;5071247;28;20473;-44
2023/05/16 12:16:41;;;;;;;2.67;0.90;;;15.30;89.90;;;;;;5080655;28;20109;-43
2023/05/16 12:19:08;;;;;;;2.28;0.93;;;15.30;90.30;;;;;;5081130;28;20103;-43
2023/05/16 12:21:37;;;;;;;3.17;0.90;;;15.30;90.50;;;;;;5080654;28;20039;-43
2023/05/16 12:24:03;;;;;;;1.35;0.80;;;15.30;90.50;;;;;;5081080;28;20012;-43
2023/05/16 12:26:30;;;;;;;4.65;0.98;;;15.40;90.80;;;;;;5101219;28;20043;-43
2023/05/16 12:29:02;;;;;;;2.72;0.70;;;15.60;90.80;;;;;;5081898;28;20293;-43
2023/05/16 12:31:31;;;;;;;2.80;1.30;;;15.70;90.30;;;;;;5080855;28;20032;-44
2023/05/16 12:33:57;;;;;;;2.65;1.10;;;15.80;90.30;;;;;;5080736;28;20097;-42
2023/05/16 12:36:25;;;;;;;2.38;1.00;;;15.80;88.90;;;;;;5080873;28;20035;-43
2023/05/16 12:38:51;;;;;;;3.58;1.08;;;15.90;88.80;;;;;;5080428;28;20016;-43
2023/05/16 12:41:21;;;;;;;2.78;1.00;;;15.80;87.90;;;;;;5081212;28;20063;-43
2023/05/16 12:43:50;;;;;;;4.43;1.13;;;15.70;87.50;;;;;;5080656;28;20468;-43
2023/05/16 12:46:18;;;;;;;2.95;0.90;;;15.50;89.00;;;;;;5081308;28;20039;-43
2023/05/16 12:48:47;;;;;;;2.92;0.90;;;15.30;88.40;;;;;;5084584;28;20128;-43
2023/05/16 12:51:16;;;;;;;2.95;0.95;;;15.20;88.80;;;;;;5084736;28;20032;-43